Merced, CA

8:22 AM PDT en Octubre 24, 2014 (GMT -0700)
Merced Municipal-Macready | Change Station
CLOSE
Current Station
Aeropuerto
Location: Merced,
Altura: 154 ft
Estaciones meteorológicas cercanas

Alt 154 ft 37.28 °N, 120.51 °W | Updated 10 minutes ago

Niebla
Niebla
54 ° F
Sensación térmica 54 ° F
N
4
Viento Variable Viento desde Norte

Hoy
Alta -- | Baja -- ° F
--% Posibilidad de precipitaciones
Ayer
Alta -- | Baja -- ° F
Precip. -- pul
7:18 AM 6:13 PM
Luna nueva, 1% visible
Presión 29.98 pul
Visibilidad 3.0 Millas
Nubes Baja 200 ft
Punto de rocío 51 ° F
Humedad 90%
Precipitaciones 0.00 pul
Espesor de la nieve No disponible.
UV 0 de una escala de 12
Polen 2.30 de una escala de 12
Calidad del aire No disponible.
Flu Activity No disponible.
SPECI KMCE 241512Z AUTO 01003KT 3SM BR FEW002 12/11 A2998 RMK AO2 T01220106

More Conditions Fewer Conditions

Presión 29.98 pul
Visibilidad 3.0 Millas
Nubes Baja 200 ft
Punto de rocío 51 ° F
Humedad 90%
Precipitaciones 0.00 pul
Espesor de la nieve No disponible.
UV 0 de una escala de 12
Polen 2.30 de una escala de 12
Calidad del aire No disponible.
Flu Activity No disponible.
SPECI KMCE 241512Z AUTO 01003KT 3SM BR FEW002 12/11 A2998 RMK AO2 T01220106

More Conditions Fewer Conditions

10-Day Weather Forecast

Almanac

Astronomía

Oct. 24, 2014 Salida Puesta
Hora real 7:18 AM PDT 6:13 PM PDT
Crepúsculo civil 6:52 AM PDT 6:39 PM PDT
Crepúsculo náutico 6:21 AM PDT 7:10 PM PDT
Crepúsculo astronómico 5:51 AM PDT 7:40 PM PDT
Luna 8:02 AM PDT 6:57 PM PDT
Horas de luz 11h 47m
Horas de luz
10h 54m
Tomorrow will be 2m 12s shorter.
Luna nueva, 1% of the Moon is Illuminated
Hoy
Luna nueva
Oct 30
Cuarto creciente
Nov 6
Luna llena
Nov 14
Cuarto menguante
Nov 22
Nueva

Extremos de hoy

Máximos del estado Bajos del estado

Community

WunderPhotos

Upload Photos

1,764,588 ¡fotos cargadas!

WunderBlogs® & News

By Dr. Jeff Masters
Director of Meteorology, Weather Underground
By Kari Strenfel
Meteorologist, Weather Underground
By Christopher C. Burt
Weather Historian, Weather Underground
October 24, 2014
October 24, 2014
October 24, 2014

Nearby

Grosos de nieve

Estación Profundido Altura
Leavitt Lake 1 in 9400 ft
Sonora Pass 0 in 8800 ft
Virginia Lakes Ridge 0 in 9200 ft
Leavitt Meadows 1 in 7200 ft
Summit Meadow 1 in 9122 ft

Actividad de terremotos

Ciudad Distance Mag. Tiempo y dato
Kettleman City, California 106 Millas 2.5 9:08 AM PDT
2014-10-22
Magnitud mínima muestra es 2,5.

Temperaturas de aguas costeras

Lugar Temperatura
Sin partes meteorológicos de las estaciones

Estaciones meteorológicas cercanas